sensor_id;sensor_type;location;lat;lon;timestamp;P1;durP1;ratioP1;P2;durP2;ratioP2
69991;SDS011;57332;51.320;-0.580;2023-01-10T00:01:54;11.20;;;1.52;;
69991;SDS011;57332;51.320;-0.580;2023-01-10T00:04:22;7.28;;;1.83;;
69991;SDS011;57332;51.320;-0.580;2023-01-10T00:06:51;9.00;;;1.20;;
69991;SDS011;57332;51.320;-0.580;2023-01-10T00:09:20;7.43;;;1.75;;
69991;SDS011;57332;51.320;-0.580;2023-01-10T00:11:47;7.95;;;1.35;;
69991;SDS011;57332;51.320;-0.580;2023-01-10T00:14:33;10.35;;;1.50;;
69991;SDS011;57332;51.320;-0.580;2023-01-10T00:17:01;8.57;;;1.67;;
69991;SDS011;57332;51.320;-0.580;2023-01-10T00:19:28;6.53;;;1.67;;
69991;SDS011;57332;51.320;-0.580;2023-01-10T00:21:57;11.38;;;1.95;;
69991;SDS011;57332;51.320;-0.580;2023-01-10T00:24:34;13.40;;;1.80;;
69991;SDS011;57332;51.320;-0.580;2023-01-10T00:27:01;9.63;;;1.67;;
69991;SDS011;57332;51.320;-0.580;2023-01-10T00:29:30;10.23;;;1.33;;
69991;SDS011;57332;51.320;-0.580;2023-01-10T00:31:58;10.50;;;1.75;;
69991;SDS011;57332;51.320;-0.580;2023-01-10T00:34:27;12.48;;;1.73;;
69991;SDS011;57332;51.320;-0.580;2023-01-10T00:36:58;10.05;;;1.45;;
69991;SDS011;57332;51.320;-0.580;2023-01-10T00:39:25;10.77;;;2.08;;
69991;SDS011;57332;51.320;-0.580;2023-01-10T00:41:53;8.40;;;1.73;;
69991;SDS011;57332;51.320;-0.580;2023-01-10T00:44:38;5.63;;;1.42;;
69991;SDS011;57332;51.320;-0.580;2023-01-10T00:47:07;11.00;;;1.50;;
69991;SDS011;57332;51.320;-0.580;2023-01-10T00:49:34;13.35;;;1.67;;
69991;SDS011;57332;51.320;-0.580;2023-01-10T00:52:01;7.78;;;1.63;;
69991;SDS011;57332;51.320;-0.580;2023-01-10T00:54:28;14.63;;;1.83;;
69991;SDS011;57332;51.320;-0.580;2023-01-10T00:57:01;8.00;;;1.67;;
69991;SDS011;57332;51.320;-0.580;2023-01-10T00:59:28;10.52;;;1.77;;
69991;SDS011;57332;51.320;-0.580;2023-01-10T01:01:55;9.05;;;1.60;;
69991;SDS011;57332;51.320;-0.580;2023-01-10T01:04:24;7.10;;;1.60;;
69991;SDS011;57332;51.320;-0.580;2023-01-10T01:06:53;11.45;;;1.90;;
69991;SDS011;57332;51.320;-0.580;2023-01-10T01:09:20;11.82;;;2.13;;
69991;SDS011;57332;51.320;-0.580;2023-01-10T01:11:47;6.97;;;2.10;;
69991;SDS011;57332;51.320;-0.580;2023-01-10T01:14:17;4.28;;;1.42;;
69991;SDS011;57332;51.320;-0.580;2023-01-10T01:16:44;7.80;;;1.30;;
69991;SDS011;57332;51.320;-0.580;2023-01-10T01:19:11;6.57;;;1.70;;
69991;SDS011;57332;51.320;-0.580;2023-01-10T01:21:38;5.32;;;1.33;;
69991;SDS011;57332;51.320;-0.580;2023-01-10T01:24:08;8.07;;;1.50;;
69991;SDS011;57332;51.320;-0.580;2023-01-10T01:26:38;11.15;;;1.83;;
69991;SDS011;57332;51.320;-0.580;2023-01-10T01:29:07;9.68;;;2.17;;
69991;SDS011;57332;51.320;-0.580;2023-01-10T01:31:36;6.90;;;1.90;;
69991;SDS011;57332;51.320;-0.580;2023-01-10T01:34:07;7.70;;;1.48;;
69991;SDS011;57332;51.320;-0.580;2023-01-10T01:36:36;12.05;;;1.63;;
69991;SDS011;57332;51.320;-0.580;2023-01-10T01:39:06;12.80;;;1.98;;
69991;SDS011;57332;51.320;-0.580;2023-01-10T01:41:33;5.93;;;1.50;;
69991;SDS011;57332;51.320;-0.580;2023-01-10T01:44:19;13.52;;;2.75;;
69991;SDS011;57332;51.320;-0.580;2023-01-10T01:46:48;7.78;;;1.95;;
69991;SDS011;57332;51.320;-0.580;2023-01-10T01:49:18;11.77;;;1.80;;
69991;SDS011;57332;51.320;-0.580;2023-01-10T01:51:47;11.13;;;1.92;;
69991;SDS011;57332;51.320;-0.580;2023-01-10T01:54:17;10.15;;;1.90;;
69991;SDS011;57332;51.320;-0.580;2023-01-10T01:56:49;9.80;;;1.50;;
69991;SDS011;57332;51.320;-0.580;2023-01-10T01:59:35;8.90;;;1.48;;
69991;SDS011;57332;51.320;-0.580;2023-01-10T02:02:08;9.45;;;1.88;;
69991;SDS011;57332;51.320;-0.580;2023-01-10T02:04:55;7.38;;;1.30;;
69991;SDS011;57332;51.320;-0.580;2023-01-10T02:07:24;10.93;;;1.98;;
69991;SDS011;57332;51.320;-0.580;2023-01-10T02:09:53;7.93;;;1.50;;
69991;SDS011;57332;51.320;-0.580;2023-01-10T02:12:24;9.40;;;1.42;;
69991;SDS011;57332;51.320;-0.580;2023-01-10T02:14:53;4.50;;;1.38;;
69991;SDS011;57332;51.320;-0.580;2023-01-10T02:17:20;6.15;;;1.70;;
69991;SDS011;57332;51.320;-0.580;2023-01-10T02:38:16;8.23;;;1.63;;
69991;SDS011;57332;51.320;-0.580;2023-01-10T02:43:49;12.18;;;1.70;;
69991;SDS011;57332;51.320;-0.580;2023-01-10T02:46:21;7.15;;;1.42;;
69991;SDS011;57332;51.320;-0.580;2023-01-10T02:48:51;4.68;;;1.35;;
69991;SDS011;57332;51.320;-0.580;2023-01-10T02:51:25;12.85;;;1.55;;
69991;SDS011;57332;51.320;-0.580;2023-01-10T02:56:30;6.28;;;1.42;;
69991;SDS011;57332;51.320;-0.580;2023-01-10T03:04:12;4.95;;;1.17;;
69991;SDS011;57332;51.320;-0.580;2023-01-10T03:10:00;8.57;;;1.33;;
69991;SDS011;57332;51.320;-0.580;2023-01-10T03:12:56;5.97;;;1.48;;
69991;SDS011;57332;51.320;-0.580;2023-01-10T03:21:20;4.53;;;1.30;;
69991;SDS011;57332;51.320;-0.580;2023-01-10T03:23:48;5.85;;;1.60;;
69991;SDS011;57332;51.320;-0.580;2023-01-10T03:26:16;6.38;;;1.55;;
69991;SDS011;57332;51.320;-0.580;2023-01-10T03:28:47;8.23;;;1.23;;
69991;SDS011;57332;51.320;-0.580;2023-01-10T03:31:16;7.65;;;1.10;;
69991;SDS011;57332;51.320;-0.580;2023-01-10T03:33:44;11.07;;;1.40;;
69991;SDS011;57332;51.320;-0.580;2023-01-10T03:36:30;3.10;;;1.10;;
69991;SDS011;57332;51.320;-0.580;2023-01-10T03:39:09;6.35;;;1.60;;
69991;SDS011;57332;51.320;-0.580;2023-01-10T03:41:52;7.57;;;1.02;;
69991;SDS011;57332;51.320;-0.580;2023-01-10T03:44:21;10.35;;;1.45;;
69991;SDS011;57332;51.320;-0.580;2023-01-10T03:47:21;5.68;;;1.17;;
69991;SDS011;57332;51.320;-0.580;2023-01-10T03:49:52;8.60;;;1.30;;
69991;SDS011;57332;51.320;-0.580;2023-01-10T03:52:19;9.27;;;1.35;;
69991;SDS011;57332;51.320;-0.580;2023-01-10T03:54:46;10.73;;;1.98;;
69991;SDS011;57332;51.320;-0.580;2023-01-10T03:57:17;8.20;;;1.58;;
69991;SDS011;57332;51.320;-0.580;2023-01-10T03:59:44;4.07;;;0.82;;
69991;SDS011;57332;51.320;-0.580;2023-01-10T04:02:12;5.75;;;1.10;;
69991;SDS011;57332;51.320;-0.580;2023-01-10T04:04:39;5.57;;;1.20;;
69991;SDS011;57332;51.320;-0.580;2023-01-10T04:07:05;4.80;;;0.98;;
69991;SDS011;57332;51.320;-0.580;2023-01-10T04:09:32;11.13;;;1.30;;
69991;SDS011;57332;51.320;-0.580;2023-01-10T04:11:59;10.07;;;1.67;;
69991;SDS011;57332;51.320;-0.580;2023-01-10T04:14:26;9.73;;;1.25;;
69991;SDS011;57332;51.320;-0.580;2023-01-10T04:16:53;4.85;;;1.15;;
69991;SDS011;57332;51.320;-0.580;2023-01-10T04:19:20;8.10;;;1.30;;
69991;SDS011;57332;51.320;-0.580;2023-01-10T04:21:47;7.57;;;1.48;;
69991;SDS011;57332;51.320;-0.580;2023-01-10T04:24:14;6.07;;;1.20;;
69991;SDS011;57332;51.320;-0.580;2023-01-10T04:26:41;7.75;;;1.50;;
69991;SDS011;57332;51.320;-0.580;2023-01-10T04:29:08;6.03;;;1.08;;
69991;SDS011;57332;51.320;-0.580;2023-01-10T04:31:35;2.67;;;1.20;;
69991;SDS011;57332;51.320;-0.580;2023-01-10T04:34:02;7.00;;;1.75;;
69991;SDS011;57332;51.320;-0.580;2023-01-10T04:36:29;4.55;;;0.93;;
69991;SDS011;57332;51.320;-0.580;2023-01-10T04:38:55;7.07;;;1.67;;
69991;SDS011;57332;51.320;-0.580;2023-01-10T04:41:22;8.23;;;1.13;;
69991;SDS011;57332;51.320;-0.580;2023-01-10T04:43:49;6.82;;;1.38;;
69991;SDS011;57332;51.320;-0.580;2023-01-10T04:46:16;7.72;;;1.40;;
69991;SDS011;57332;51.320;-0.580;2023-01-10T04:48:43;9.52;;;1.38;;
69991;SDS011;57332;51.320;-0.580;2023-01-10T04:51:10;7.78;;;1.10;;
69991;SDS011;57332;51.320;-0.580;2023-01-10T04:53:36;4.57;;;1.15;;
69991;SDS011;57332;51.320;-0.580;2023-01-10T04:56:04;5.45;;;1.00;;
69991;SDS011;57332;51.320;-0.580;2023-01-10T04:58:32;10.00;;;1.65;;
69991;SDS011;57332;51.320;-0.580;2023-01-10T05:00:59;5.75;;;1.30;;
69991;SDS011;57332;51.320;-0.580;2023-01-10T05:03:32;5.57;;;1.10;;
69991;SDS011;57332;51.320;-0.580;2023-01-10T05:05:59;6.50;;;1.27;;
69991;SDS011;57332;51.320;-0.580;2023-01-10T05:08:26;8.00;;;1.30;;
69991;SDS011;57332;51.320;-0.580;2023-01-10T05:10:53;9.98;;;1.85;;
69991;SDS011;57332;51.320;-0.580;2023-01-10T05:13:20;5.85;;;1.63;;
69991;SDS011;57332;51.320;-0.580;2023-01-10T05:15:47;5.88;;;1.58;;
69991;SDS011;57332;51.320;-0.580;2023-01-10T05:18:14;12.57;;;1.60;;
69991;SDS011;57332;51.320;-0.580;2023-01-10T05:20:41;7.95;;;1.63;;
69991;SDS011;57332;51.320;-0.580;2023-01-10T05:23:07;10.13;;;1.55;;
69991;SDS011;57332;51.320;-0.580;2023-01-10T05:25:34;5.40;;;1.20;;
69991;SDS011;57332;51.320;-0.580;2023-01-10T05:28:01;8.07;;;1.25;;
69991;SDS011;57332;51.320;-0.580;2023-01-10T05:30:28;5.45;;;1.50;;
69991;SDS011;57332;51.320;-0.580;2023-01-10T05:32:55;6.30;;;1.13;;
69991;SDS011;57332;51.320;-0.580;2023-01-10T05:35:22;8.20;;;1.27;;
69991;SDS011;57332;51.320;-0.580;2023-01-10T05:37:48;5.57;;;1.15;;
69991;SDS011;57332;51.320;-0.580;2023-01-10T05:40:15;8.60;;;1.40;;
69991;SDS011;57332;51.320;-0.580;2023-01-10T05:42:42;9.38;;;1.95;;
69991;SDS011;57332;51.320;-0.580;2023-01-10T05:45:09;10.32;;;1.45;;
69991;SDS011;57332;51.320;-0.580;2023-01-10T05:47:36;5.45;;;1.17;;
69991;SDS011;57332;51.320;-0.580;2023-01-10T05:50:03;6.47;;;1.10;;
69991;SDS011;57332;51.320;-0.580;2023-01-10T05:52:30;5.28;;;1.00;;
69991;SDS011;57332;51.320;-0.580;2023-01-10T05:54:56;5.30;;;1.40;;
69991;SDS011;57332;51.320;-0.580;2023-01-10T05:57:23;8.77;;;1.83;;
69991;SDS011;57332;51.320;-0.580;2023-01-10T05:59:50;7.68;;;1.10;;
69991;SDS011;57332;51.320;-0.580;2023-01-10T06:02:17;8.00;;;1.50;;
69991;SDS011;57332;51.320;-0.580;2023-01-10T06:04:44;7.53;;;1.45;;
69991;SDS011;57332;51.320;-0.580;2023-01-10T06:07:11;9.57;;;1.52;;
69991;SDS011;57332;51.320;-0.580;2023-01-10T06:09:38;6.18;;;1.20;;
69991;SDS011;57332;51.320;-0.580;2023-01-10T06:12:04;6.53;;;1.33;;
69991;SDS011;57332;51.320;-0.580;2023-01-10T06:14:31;8.85;;;1.40;;
69991;SDS011;57332;51.320;-0.580;2023-01-10T06:16:58;11.57;;;1.60;;
69991;SDS011;57332;51.320;-0.580;2023-01-10T06:19:25;5.03;;;1.27;;
69991;SDS011;57332;51.320;-0.580;2023-01-10T06:21:51;6.30;;;1.15;;
69991;SDS011;57332;51.320;-0.580;2023-01-10T06:24:19;6.85;;;1.70;;
69991;SDS011;57332;51.320;-0.580;2023-01-10T06:26:45;9.30;;;2.03;;
69991;SDS011;57332;51.320;-0.580;2023-01-10T06:29:12;9.57;;;1.33;;
69991;SDS011;57332;51.320;-0.580;2023-01-10T06:31:39;9.43;;;1.30;;
69991;SDS011;57332;51.320;-0.580;2023-01-10T06:34:06;4.22;;;0.95;;
69991;SDS011;57332;51.320;-0.580;2023-01-10T06:36:33;11.18;;;1.63;;
69991;SDS011;57332;51.320;-0.580;2023-01-10T06:38:59;9.50;;;1.08;;
69991;SDS011;57332;51.320;-0.580;2023-01-10T06:41:27;8.65;;;1.65;;
69991;SDS011;57332;51.320;-0.580;2023-01-10T06:43:54;8.80;;;1.50;;
69991;SDS011;57332;51.320;-0.580;2023-01-10T06:46:21;9.77;;;1.80;;
69991;SDS011;57332;51.320;-0.580;2023-01-10T06:48:47;6.82;;;1.25;;
69991;SDS011;57332;51.320;-0.580;2023-01-10T06:51:15;8.45;;;1.80;;
69991;SDS011;57332;51.320;-0.580;2023-01-10T06:53:45;7.95;;;1.40;;
69991;SDS011;57332;51.320;-0.580;2023-01-10T06:56:12;6.10;;;1.00;;
69991;SDS011;57332;51.320;-0.580;2023-01-10T06:58:39;10.25;;;1.50;;
69991;SDS011;57332;51.320;-0.580;2023-01-10T07:01:06;7.72;;;2.08;;
69991;SDS011;57332;51.320;-0.580;2023-01-10T07:03:33;9.70;;;1.75;;
69991;SDS011;57332;51.320;-0.580;2023-01-10T07:06:01;9.75;;;1.45;;
69991;SDS011;57332;51.320;-0.580;2023-01-10T07:08:28;9.65;;;1.15;;
69991;SDS011;57332;51.320;-0.580;2023-01-10T07:10:56;6.93;;;1.80;;
69991;SDS011;57332;51.320;-0.580;2023-01-10T07:13:23;5.90;;;1.35;;
69991;SDS011;57332;51.320;-0.580;2023-01-10T07:15:49;8.77;;;1.33;;
69991;SDS011;57332;51.320;-0.580;2023-01-10T07:18:16;7.35;;;1.30;;
69991;SDS011;57332;51.320;-0.580;2023-01-10T07:20:43;8.70;;;1.63;;
69991;SDS011;57332;51.320;-0.580;2023-01-10T07:23:10;8.82;;;1.70;;
69991;SDS011;57332;51.320;-0.580;2023-01-10T07:25:37;8.23;;;1.33;;
69991;SDS011;57332;51.320;-0.580;2023-01-10T07:28:04;7.22;;;1.23;;
69991;SDS011;57332;51.320;-0.580;2023-01-10T07:30:31;7.82;;;1.20;;
69991;SDS011;57332;51.320;-0.580;2023-01-10T07:32:58;5.38;;;1.30;;
69991;SDS011;57332;51.320;-0.580;2023-01-10T07:35:26;10.43;;;2.08;;
69991;SDS011;57332;51.320;-0.580;2023-01-10T07:37:56;9.43;;;1.40;;
69991;SDS011;57332;51.320;-0.580;2023-01-10T07:40:23;9.25;;;1.52;;
69991;SDS011;57332;51.320;-0.580;2023-01-10T07:42:54;7.63;;;1.45;;
69991;SDS011;57332;51.320;-0.580;2023-01-10T07:45:21;7.32;;;1.20;;
69991;SDS011;57332;51.320;-0.580;2023-01-10T07:47:48;9.23;;;1.65;;
69991;SDS011;57332;51.320;-0.580;2023-01-10T07:50:15;5.90;;;1.70;;
69991;SDS011;57332;51.320;-0.580;2023-01-10T07:52:43;6.43;;;1.40;;
69991;SDS011;57332;51.320;-0.580;2023-01-10T07:55:10;8.38;;;1.13;;
69991;SDS011;57332;51.320;-0.580;2023-01-10T07:57:37;4.70;;;1.40;;
69991;SDS011;57332;51.320;-0.580;2023-01-10T08:00:04;6.22;;;1.20;;
69991;SDS011;57332;51.320;-0.580;2023-01-10T08:02:31;6.05;;;1.30;;
69991;SDS011;57332;51.320;-0.580;2023-01-10T08:04:58;6.20;;;0.85;;
69991;SDS011;57332;51.320;-0.580;2023-01-10T08:07:25;5.28;;;1.08;;
69991;SDS011;57332;51.320;-0.580;2023-01-10T08:09:54;6.45;;;0.80;;
69991;SDS011;57332;51.320;-0.580;2023-01-10T08:12:23;4.40;;;1.33;;
69991;SDS011;57332;51.320;-0.580;2023-01-10T08:14:53;7.30;;;1.13;;
69991;SDS011;57332;51.320;-0.580;2023-01-10T08:17:20;11.75;;;1.50;;
69991;SDS011;57332;51.320;-0.580;2023-01-10T08:19:48;6.75;;;1.15;;
69991;SDS011;57332;51.320;-0.580;2023-01-10T08:22:18;2.95;;;0.90;;
69991;SDS011;57332;51.320;-0.580;2023-01-10T08:24:45;4.15;;;1.00;;
69991;SDS011;57332;51.320;-0.580;2023-01-10T08:27:15;5.75;;;1.20;;
69991;SDS011;57332;51.320;-0.580;2023-01-10T08:29:44;7.93;;;1.17;;
69991;SDS011;57332;51.320;-0.580;2023-01-10T08:32:11;4.53;;;0.75;;
69991;SDS011;57332;51.320;-0.580;2023-01-10T08:34:38;6.32;;;1.10;;
69991;SDS011;57332;51.320;-0.580;2023-01-10T08:37:10;6.22;;;0.90;;
69991;SDS011;57332;51.320;-0.580;2023-01-10T08:39:38;3.67;;;1.00;;
69991;SDS011;57332;51.320;-0.580;2023-01-10T08:42:05;4.07;;;0.98;;
69991;SDS011;57332;51.320;-0.580;2023-01-10T08:44:32;3.92;;;0.80;;
69991;SDS011;57332;51.320;-0.580;2023-01-10T08:46:59;5.97;;;0.95;;
69991;SDS011;57332;51.320;-0.580;2023-01-10T08:49:26;4.05;;;0.63;;
69991;SDS011;57332;51.320;-0.580;2023-01-10T08:51:54;4.40;;;0.50;;
69991;SDS011;57332;51.320;-0.580;2023-01-10T08:54:24;1.60;;;0.93;;
69991;SDS011;57332;51.320;-0.580;2023-01-10T08:56:51;2.17;;;0.60;;
69991;SDS011;57332;51.320;-0.580;2023-01-10T08:59:20;2.78;;;0.60;;
69991;SDS011;57332;51.320;-0.580;2023-01-10T09:01:47;3.53;;;0.40;;
69991;SDS011;57332;51.320;-0.580;2023-01-10T09:04:17;1.55;;;0.47;;
69991;SDS011;57332;51.320;-0.580;2023-01-10T09:06:44;1.75;;;0.57;;
69991;SDS011;57332;51.320;-0.580;2023-01-10T09:09:11;3.13;;;0.50;;
69991;SDS011;57332;51.320;-0.580;2023-01-10T09:11:37;1.55;;;0.32;;
69991;SDS011;57332;51.320;-0.580;2023-01-10T09:14:07;1.65;;;0.35;;
69991;SDS011;57332;51.320;-0.580;2023-01-10T09:16:34;1.05;;;0.30;;
69991;SDS011;57332;51.320;-0.580;2023-01-10T09:19:01;0.77;;;0.30;;
69991;SDS011;57332;51.320;-0.580;2023-01-10T09:21:29;0.98;;;0.30;;
69991;SDS011;57332;51.320;-0.580;2023-01-10T09:23:57;1.15;;;0.30;;
69991;SDS011;57332;51.320;-0.580;2023-01-10T09:26:23;0.50;;;0.32;;
69991;SDS011;57332;51.320;-0.580;2023-01-10T09:28:51;2.20;;;0.30;;
69991;SDS011;57332;51.320;-0.580;2023-01-10T09:31:18;0.90;;;0.30;;
69991;SDS011;57332;51.320;-0.580;2023-01-10T09:33:44;0.20;;;0.20;;
69991;SDS011;57332;51.320;-0.580;2023-01-10T09:36:13;0.28;;;0.20;;
69991;SDS011;57332;51.320;-0.580;2023-01-10T09:38:41;0.20;;;0.20;;
69991;SDS011;57332;51.320;-0.580;2023-01-10T09:43:48;0.32;;;0.20;;
69991;SDS011;57332;51.320;-0.580;2023-01-10T09:51:48;1.40;;;0.30;;
69991;SDS011;57332;51.320;-0.580;2023-01-10T09:54:22;2.22;;;0.30;;
69991;SDS011;57332;51.320;-0.580;2023-01-10T09:56:51;0.40;;;0.40;;
69991;SDS011;57332;51.320;-0.580;2023-01-10T09:59:23;1.98;;;0.20;;
69991;SDS011;57332;51.320;-0.580;2023-01-10T10:01:52;0.20;;;0.20;;
69991;SDS011;57332;51.320;-0.580;2023-01-10T10:04:26;0.25;;;0.10;;
69991;SDS011;57332;51.320;-0.580;2023-01-10T10:06:53;0.20;;;0.20;;
69991;SDS011;57332;51.320;-0.580;2023-01-10T10:09:30;0.40;;;0.28;;
69991;SDS011;57332;51.320;-0.580;2023-01-10T10:12:01;1.30;;;0.17;;
69991;SDS011;57332;51.320;-0.580;2023-01-10T10:15:17;0.32;;;0.20;;
69991;SDS011;57332;51.320;-0.580;2023-01-10T10:17:24;1.05;;;0.30;;
69991;SDS011;57332;51.320;-0.580;2023-01-10T10:37:57;1.80;;;0.35;;
69991;SDS011;57332;51.320;-0.580;2023-01-10T10:42:55;0.17;;;0.17;;
69991;SDS011;57332;51.320;-0.580;2023-01-10T10:45:57;0.70;;;0.50;;
69991;SDS011;57332;51.320;-0.580;2023-01-10T10:53:21;0.95;;;0.20;;
69991;SDS011;57332;51.320;-0.580;2023-01-10T10:55:48;0.30;;;0.30;;
69991;SDS011;57332;51.320;-0.580;2023-01-10T10:58:16;2.22;;;0.30;;
69991;SDS011;57332;51.320;-0.580;2023-01-10T11:00:43;0.40;;;0.40;;
69991;SDS011;57332;51.320;-0.580;2023-01-10T11:05:43;0.73;;;0.20;;
69991;SDS011;57332;51.320;-0.580;2023-01-10T11:08:11;0.47;;;0.30;;
69991;SDS011;57332;51.320;-0.580;2023-01-10T11:10:39;0.82;;;0.40;;
69991;SDS011;57332;51.320;-0.580;2023-01-10T11:13:53;1.30;;;0.17;;
69991;SDS011;57332;51.320;-0.580;2023-01-10T11:15:54;0.60;;;0.40;;
69991;SDS011;57332;51.320;-0.580;2023-01-10T11:18:22;0.82;;;0.30;;
69991;SDS011;57332;51.320;-0.580;2023-01-10T11:20:51;1.05;;;0.20;;
69991;SDS011;57332;51.320;-0.580;2023-01-10T11:26:08;0.50;;;0.30;;
69991;SDS011;57332;51.320;-0.580;2023-01-10T11:28:38;0.85;;;0.32;;
69991;SDS011;57332;51.320;-0.580;2023-01-10T11:31:08;2.15;;;0.30;;
69991;SDS011;57332;51.320;-0.580;2023-01-10T11:33:36;0.63;;;0.38;;
69991;SDS011;57332;51.320;-0.580;2023-01-10T11:36:09;0.90;;;0.30;;
69991;SDS011;57332;51.320;-0.580;2023-01-10T11:38:41;3.03;;;0.35;;
69991;SDS011;57332;51.320;-0.580;2023-01-10T11:43:44;1.13;;;0.28;;
69991;SDS011;57332;51.320;-0.580;2023-01-10T11:46:15;1.45;;;0.35;;
69991;SDS011;57332;51.320;-0.580;2023-01-10T11:51:32;1.08;;;0.32;;
69991;SDS011;57332;51.320;-0.580;2023-01-10T11:54:01;0.43;;;0.30;;
69991;SDS011;57332;51.320;-0.580;2023-01-10T11:56:29;0.68;;;0.35;;
69991;SDS011;57332;51.320;-0.580;2023-01-10T11:58:57;0.40;;;0.20;;
69991;SDS011;57332;51.320;-0.580;2023-01-10T12:01:28;2.75;;;0.40;;
69991;SDS011;57332;51.320;-0.580;2023-01-10T12:03:56;0.82;;;0.40;;
69991;SDS011;57332;51.320;-0.580;2023-01-10T12:06:22;0.90;;;0.57;;
69991;SDS011;57332;51.320;-0.580;2023-01-10T12:08:49;0.70;;;0.40;;
69991;SDS011;57332;51.320;-0.580;2023-01-10T12:13:50;1.40;;;0.47;;
69991;SDS011;57332;51.320;-0.580;2023-01-10T12:18:55;1.23;;;0.65;;
69991;SDS011;57332;51.320;-0.580;2023-01-10T12:23:53;1.55;;;0.90;;
69991;SDS011;57332;51.320;-0.580;2023-01-10T12:26:20;4.00;;;1.33;;
69991;SDS011;57332;51.320;-0.580;2023-01-10T12:28:49;4.00;;;1.20;;
69991;SDS011;57332;51.320;-0.580;2023-01-10T12:31:18;4.15;;;1.60;;
69991;SDS011;57332;51.320;-0.580;2023-01-10T12:33:54;9.48;;;1.95;;
69991;SDS011;57332;51.320;-0.580;2023-01-10T12:39:12;11.50;;;2.90;;
69991;SDS011;57332;51.320;-0.580;2023-01-10T12:47:13;13.85;;;2.95;;
69991;SDS011;57332;51.320;-0.580;2023-01-10T12:49:44;18.88;;;3.35;;
69991;SDS011;57332;51.320;-0.580;2023-01-10T12:52:15;12.48;;;3.13;;
69991;SDS011;57332;51.320;-0.580;2023-01-10T12:54:43;17.10;;;3.55;;
69991;SDS011;57332;51.320;-0.580;2023-01-10T12:57:22;20.23;;;3.83;;
69991;SDS011;57332;51.320;-0.580;2023-01-10T12:59:49;23.02;;;4.40;;
69991;SDS011;57332;51.320;-0.580;2023-01-10T13:02:19;24.13;;;3.53;;
69991;SDS011;57332;51.320;-0.580;2023-01-10T13:04:54;20.77;;;4.05;;
69991;SDS011;57332;51.320;-0.580;2023-01-10T13:07:23;23.42;;;4.10;;
69991;SDS011;57332;51.320;-0.580;2023-01-10T13:12:21;19.48;;;3.70;;
69991;SDS011;57332;51.320;-0.580;2023-01-10T13:22:50;26.23;;;4.50;;
69991;SDS011;57332;51.320;-0.580;2023-01-10T13:27:58;27.98;;;5.32;;
69991;SDS011;57332;51.320;-0.580;2023-01-10T13:33:03;31.85;;;5.63;;
69991;SDS011;57332;51.320;-0.580;2023-01-10T13:35:42;26.83;;;5.63;;
69991;SDS011;57332;51.320;-0.580;2023-01-10T13:40:55;25.38;;;6.03;;
69991;SDS011;57332;51.320;-0.580;2023-01-10T13:43:29;33.35;;;7.13;;
69991;SDS011;57332;51.320;-0.580;2023-01-10T13:51:29;35.95;;;7.88;;
69991;SDS011;57332;51.320;-0.580;2023-01-10T13:54:03;38.40;;;8.57;;
69991;SDS011;57332;51.320;-0.580;2023-01-10T13:59:03;21.88;;;5.82;;
69991;SDS011;57332;51.320;-0.580;2023-01-10T14:01:48;23.55;;;5.32;;
69991;SDS011;57332;51.320;-0.580;2023-01-10T14:04:34;28.75;;;6.10;;
69991;SDS011;57332;51.320;-0.580;2023-01-10T14:07:03;26.20;;;4.93;;
69991;SDS011;57332;51.320;-0.580;2023-01-10T14:09:37;27.00;;;5.18;;
69991;SDS011;57332;51.320;-0.580;2023-01-10T14:12:19;23.42;;;4.57;;
69991;SDS011;57332;51.320;-0.580;2023-01-10T14:15:07;28.05;;;4.30;;
69991;SDS011;57332;51.320;-0.580;2023-01-10T14:17:40;22.13;;;4.55;;
69991;SDS011;57332;51.320;-0.580;2023-01-10T14:20:14;20.40;;;4.32;;
69991;SDS011;57332;51.320;-0.580;2023-01-10T14:22:45;16.25;;;2.97;;
69991;SDS011;57332;51.320;-0.580;2023-01-10T14:25:25;15.00;;;3.63;;
69991;SDS011;57332;51.320;-0.580;2023-01-10T14:27:54;18.42;;;3.35;;
69991;SDS011;57332;51.320;-0.580;2023-01-10T14:30:28;12.70;;;2.85;;
69991;SDS011;57332;51.320;-0.580;2023-01-10T14:33:12;17.67;;;3.30;;
69991;SDS011;57332;51.320;-0.580;2023-01-10T14:35:42;12.45;;;2.67;;
69991;SDS011;57332;51.320;-0.580;2023-01-10T14:38:18;11.05;;;2.95;;
69991;SDS011;57332;51.320;-0.580;2023-01-10T14:40:52;12.95;;;2.63;;
69991;SDS011;57332;51.320;-0.580;2023-01-10T14:43:37;15.75;;;4.10;;
69991;SDS011;57332;51.320;-0.580;2023-01-10T14:46:18;19.10;;;3.33;;
69991;SDS011;57332;51.320;-0.580;2023-01-10T14:48:53;14.00;;;3.00;;
69991;SDS011;57332;51.320;-0.580;2023-01-10T14:51:31;9.68;;;2.95;;
69991;SDS011;57332;51.320;-0.580;2023-01-10T15:01:42;13.90;;;2.78;;
69991;SDS011;57332;51.320;-0.580;2023-01-10T15:04:14;11.20;;;2.85;;
69991;SDS011;57332;51.320;-0.580;2023-01-10T15:09:18;14.02;;;3.17;;
69991;SDS011;57332;51.320;-0.580;2023-01-10T15:11:47;14.93;;;3.10;;
69991;SDS011;57332;51.320;-0.580;2023-01-10T15:14:15;12.05;;;2.33;;
69991;SDS011;57332;51.320;-0.580;2023-01-10T15:16:43;10.93;;;3.22;;
69991;SDS011;57332;51.320;-0.580;2023-01-10T15:19:16;17.38;;;4.55;;
69991;SDS011;57332;51.320;-0.580;2023-01-10T15:21:46;14.05;;;3.08;;
69991;SDS011;57332;51.320;-0.580;2023-01-10T15:26:50;15.05;;;3.35;;
69991;SDS011;57332;51.320;-0.580;2023-01-10T15:29:21;14.48;;;3.55;;
69991;SDS011;57332;51.320;-0.580;2023-01-10T15:31:49;22.73;;;3.78;;
69991;SDS011;57332;51.320;-0.580;2023-01-10T15:34:20;20.25;;;3.88;;
69991;SDS011;57332;51.320;-0.580;2023-01-10T15:36:52;22.55;;;4.47;;
69991;SDS011;57332;51.320;-0.580;2023-01-10T15:39:26;24.73;;;4.68;;
69991;SDS011;57332;51.320;-0.580;2023-01-10T15:41:57;23.38;;;4.85;;
69991;SDS011;57332;51.320;-0.580;2023-01-10T15:44:39;24.85;;;4.55;;
69991;SDS011;57332;51.320;-0.580;2023-01-10T15:49:57;25.52;;;5.85;;
69991;SDS011;57332;51.320;-0.580;2023-01-10T15:52:29;25.83;;;6.20;;
69991;SDS011;57332;51.320;-0.580;2023-01-10T15:54:59;28.65;;;7.22;;
69991;SDS011;57332;51.320;-0.580;2023-01-10T15:57:29;26.45;;;6.28;;
69991;SDS011;57332;51.320;-0.580;2023-01-10T15:59:58;24.52;;;4.85;;
69991;SDS011;57332;51.320;-0.580;2023-01-10T16:02:29;24.40;;;5.03;;
69991;SDS011;57332;51.320;-0.580;2023-01-10T16:05:08;21.30;;;4.00;;
69991;SDS011;57332;51.320;-0.580;2023-01-10T16:07:40;20.13;;;4.13;;
69991;SDS011;57332;51.320;-0.580;2023-01-10T16:10:14;22.83;;;3.67;;
69991;SDS011;57332;51.320;-0.580;2023-01-10T16:12:45;26.85;;;3.75;;
69991;SDS011;57332;51.320;-0.580;2023-01-10T16:15:33;19.92;;;3.65;;
69991;SDS011;57332;51.320;-0.580;2023-01-10T16:18:12;25.58;;;3.97;;
69991;SDS011;57332;51.320;-0.580;2023-01-10T16:20:41;18.42;;;3.10;;
69991;SDS011;57332;51.320;-0.580;2023-01-10T16:23:13;13.85;;;3.08;;
69991;SDS011;57332;51.320;-0.580;2023-01-10T16:25:48;24.20;;;4.05;;
69991;SDS011;57332;51.320;-0.580;2023-01-10T16:28:16;14.73;;;3.22;;
69991;SDS011;57332;51.320;-0.580;2023-01-10T16:30:46;19.00;;;3.83;;
69991;SDS011;57332;51.320;-0.580;2023-01-10T16:33:18;16.80;;;3.38;;
69991;SDS011;57332;51.320;-0.580;2023-01-10T16:35:49;11.60;;;3.38;;
69991;SDS011;57332;51.320;-0.580;2023-01-10T16:38:17;14.45;;;3.10;;
69991;SDS011;57332;51.320;-0.580;2023-01-10T16:41:08;18.05;;;3.13;;
69991;SDS011;57332;51.320;-0.580;2023-01-10T16:43:56;12.13;;;2.80;;
69991;SDS011;57332;51.320;-0.580;2023-01-10T16:46:24;13.07;;;2.38;;
69991;SDS011;57332;51.320;-0.580;2023-01-10T16:48:55;12.85;;;2.78;;
69991;SDS011;57332;51.320;-0.580;2023-01-10T16:51:28;17.55;;;2.60;;
69991;SDS011;57332;51.320;-0.580;2023-01-10T16:53:58;8.88;;;2.05;;
69991;SDS011;57332;51.320;-0.580;2023-01-10T16:56:29;13.63;;;2.45;;
69991;SDS011;57332;51.320;-0.580;2023-01-10T17:02:42;8.43;;;2.13;;
69991;SDS011;57332;51.320;-0.580;2023-01-10T17:08:23;7.10;;;1.73;;
69991;SDS011;57332;51.320;-0.580;2023-01-10T17:11:00;8.80;;;2.03;;
69991;SDS011;57332;51.320;-0.580;2023-01-10T17:13:52;11.35;;;2.22;;
69991;SDS011;57332;51.320;-0.580;2023-01-10T17:19:58;6.43;;;2.28;;